Time;durP1;ratioP1;P1;durP2;ratioP2;P2;SDS_P1;SDS_P2;PMS_P1;PMS_P2;Temp;Humidity;BMP_temperature;BMP_pressure;BME280_temperature;BME280_humidity;BME280_pressure;Samples;Min_cycle;Max_cycle;Signal;HPM_P1;HPM_P2
2022/09/18 00:00:04;;;;;;;3.67;1.53;;;13.00;82.60;;;;;;932149;152;27517;-79
2022/09/18 00:02:30;;;;;;;1.50;1.07;;;13.00;82.70;;;;;;931721;152;28296;-79
2022/09/18 00:04:56;;;;;;;5.27;1.70;;;13.10;83.10;;;;;;931844;152;27364;-78
2022/09/18 00:07:23;;;;;;;3.50;1.30;;;13.10;83.30;;;;;;931682;151;27428;-79
2022/09/18 00:09:50;;;;;;;3.47;1.23;;;13.10;83.30;;;;;;931234;152;27440;-79
2022/09/18 00:12:16;;;;;;;5.57;2.17;;;13.10;83.20;;;;;;931804;152;28172;-79
2022/09/18 00:14:43;;;;;;;5.37;1.57;;;13.20;83.30;;;;;;930465;150;27515;-78
2022/09/18 00:17:09;;;;;;;4.37;1.40;;;13.20;83.20;;;;;;929070;152;27925;-79
2022/09/18 00:19:36;;;;;;;3.23;1.03;;;13.20;83.00;;;;;;929104;152;27448;-79
2022/09/18 00:22:03;;;;;;;3.50;1.37;;;13.20;83.20;;;;;;930230;152;27306;-79
2022/09/18 00:24:30;;;;;;;4.53;1.20;;;13.20;83.20;;;;;;929376;152;27532;-79
2022/09/18 00:26:56;;;;;;;2.53;1.30;;;13.20;83.40;;;;;;930882;151;27387;-78
2022/09/18 00:29:22;;;;;;;3.33;1.10;;;13.20;83.60;;;;;;929773;151;27418;-78
2022/09/18 00:31:49;;;;;;;1.73;1.10;;;13.20;83.60;;;;;;930142;152;27372;-78
2022/09/18 00:34:16;;;;;;;2.13;1.37;;;13.20;83.90;;;;;;929722;152;27318;-79
2022/09/18 00:36:42;;;;;;;3.43;1.27;;;13.20;84.20;;;;;;929212;152;27465;-78
2022/09/18 00:39:09;;;;;;;1.40;1.30;;;13.20;84.20;;;;;;929900;152;27398;-79
2022/09/18 00:41:35;;;;;;;4.87;1.47;;;13.20;84.30;;;;;;929789;152;27375;-78
2022/09/18 00:44:36;;;;;;;5.03;1.53;;;13.20;84.50;;;;;;930109;152;27390;-78
2022/09/18 00:47:11;;;;;;;2.43;1.27;;;13.20;84.60;;;;;;930318;150;27321;-79
2022/09/18 00:49:37;;;;;;;2.10;1.40;;;13.30;84.40;;;;;;930640;152;27355;-79
2022/09/18 00:52:04;;;;;;;2.20;1.30;;;13.30;84.50;;;;;;931028;152;27306;-79
2022/09/18 00:54:36;;;;;;;4.83;1.60;;;13.30;84.80;;;;;;930794;151;27812;-78
2022/09/18 00:57:05;;;;;;;2.50;1.17;;;13.30;85.00;;;;;;929359;151;27316;-79
2022/09/18 00:59:32;;;;;;;3.63;1.50;;;13.20;84.80;;;;;;929947;152;27399;-78
2022/09/18 01:01:59;;;;;;;3.17;1.37;;;13.20;84.70;;;;;;930003;152;27408;-79
2022/09/18 01:04:25;;;;;;;3.10;2.13;;;13.30;85.00;;;;;;932102;152;27393;-79
2022/09/18 01:07:01;;;;;;;5.30;1.30;;;13.20;85.10;;;;;;929957;152;28339;-78
2022/09/18 01:09:36;;;;;;;1.97;1.50;;;13.30;85.30;;;;;;930997;151;27335;-79
2022/09/18 01:12:11;;;;;;;3.07;1.30;;;13.20;85.30;;;;;;928887;152;27432;-78
2022/09/18 01:14:40;;;;;;;2.03;1.23;;;13.30;85.10;;;;;;929716;150;27393;-79
2022/09/18 01:17:25;;;;;;;3.43;1.60;;;13.20;85.00;;;;;;934260;151;27330;-78
2022/09/18 01:20:11;;;;;;;4.87;1.50;;;13.20;85.30;;;;;;935316;150;27365;-79
2022/09/18 01:23:05;;;;;;;2.33;1.23;;;13.20;85.30;;;;;;932823;150;27357;-79
2022/09/18 01:26:05;;;;;;;2.40;1.10;;;13.20;85.40;;;;;;934426;151;27456;-79
2022/09/18 01:28:47;;;;;;;2.07;1.20;;;13.10;85.20;;;;;;933132;151;27381;-78
2022/09/18 01:31:17;;;;;;;2.93;1.30;;;13.10;85.40;;;;;;934380;151;27793;-78
2022/09/18 01:33:43;;;;;;;3.40;1.50;;;13.10;85.50;;;;;;924803;151;27326;-78
2022/09/18 01:36:10;;;;;;;2.50;1.10;;;13.10;86.00;;;;;;934394;150;27818;-79
2022/09/18 01:38:42;;;;;;;1.87;1.47;;;13.10;86.20;;;;;;934829;151;27732;-78
2022/09/18 01:41:23;;;;;;;3.53;1.27;;;13.10;86.50;;;;;;930637;151;28765;-79
2022/09/18 01:43:50;;;;;;;3.00;1.20;;;13.10;86.50;;;;;;935259;151;27401;-79
2022/09/18 01:46:17;;;;;;;3.20;1.33;;;13.10;86.40;;;;;;934693;151;27345;-79
2022/09/18 01:48:43;;;;;;;2.60;1.50;;;13.00;86.60;;;;;;935163;151;27921;-79
2022/09/18 01:51:10;;;;;;;3.00;1.30;;;13.10;87.00;;;;;;935346;150;27430;-79
2022/09/18 01:53:36;;;;;;;2.47;1.20;;;13.10;87.10;;;;;;935042;151;27958;-79
2022/09/18 01:56:03;;;;;;;3.83;1.30;;;13.00;87.20;;;;;;934589;151;27358;-78
2022/09/18 01:58:30;;;;;;;2.20;1.20;;;13.10;87.60;;;;;;933753;151;27412;-79
2022/09/18 02:00:56;;;;;;;2.33;1.00;;;13.00;87.90;;;;;;934837;151;27330;-79
2022/09/18 02:03:23;;;;;;;1.60;1.10;;;13.10;88.10;;;;;;934925;150;27379;-78
2022/09/18 02:05:49;;;;;;;4.17;1.20;;;13.10;88.10;;;;;;934548;151;27365;-78
2022/09/18 02:08:31;;;;;;;1.80;1.40;;;13.10;88.20;;;;;;930407;151;27383;-78
2022/09/18 02:10:57;;;;;;;2.50;1.40;;;13.10;88.40;;;;;;934051;151;27899;-78
2022/09/18 02:13:24;;;;;;;1.80;1.10;;;13.10;88.40;;;;;;933652;151;27439;-79
2022/09/18 02:15:51;;;;;;;3.37;1.40;;;13.10;88.70;;;;;;933099;150;27348;-79
2022/09/18 02:18:17;;;;;;;1.33;0.73;;;13.10;88.90;;;;;;930610;151;27470;-79
2022/09/18 02:20:44;;;;;;;3.03;1.20;;;13.20;89.20;;;;;;930860;151;27370;-78
2022/09/18 02:23:10;;;;;;;2.10;1.17;;;13.20;89.30;;;;;;931629;151;27522;-78
2022/09/18 02:25:49;;;;;;;2.03;1.37;;;13.20;89.50;;;;;;931998;151;27299;-79
2022/09/18 02:28:16;;;;;;;0.93;0.90;;;13.20;89.60;;;;;;932009;152;27362;-78
2022/09/18 02:30:42;;;;;;;1.87;1.00;;;13.30;89.60;;;;;;931806;152;27381;-78
2022/09/18 02:33:24;;;;;;;1.50;1.10;;;13.20;89.50;;;;;;931741;151;27382;-79
2022/09/18 02:35:51;;;;;;;2.07;1.13;;;13.30;89.50;;;;;;931482;152;27303;-78
2022/09/18 02:38:20;;;;;;;3.10;1.33;;;13.30;89.30;;;;;;930372;152;27406;-79
2022/09/18 02:41:08;;;;;;;1.40;1.30;;;13.30;89.20;;;;;;929312;152;27711;-80
2022/09/18 02:43:46;;;;;;;1.30;1.20;;;13.30;89.30;;;;;;931956;152;27362;-80
2022/09/18 02:46:31;;;;;;;3.37;1.13;;;13.30;89.30;;;;;;930241;151;27745;-81
2022/09/18 02:49:00;;;;;;;3.97;1.20;;;13.30;89.50;;;;;;930171;152;27299;-81
2022/09/18 02:51:45;;;;;;;4.83;1.30;;;13.30;89.60;;;;;;930698;152;27411;-80
2022/09/18 02:54:20;;;;;;;5.37;1.30;;;13.30;89.80;;;;;;930773;152;27351;-81
2022/09/18 02:56:50;;;;;;;2.33;1.40;;;13.30;89.80;;;;;;917949;152;27475;-79
2022/09/18 02:59:19;;;;;;;1.03;0.93;;;13.20;90.00;;;;;;931644;152;27406;-80
2022/09/18 03:01:46;;;;;;;1.00;1.00;;;13.20;90.20;;;;;;931581;151;27316;-78
2022/09/18 03:04:12;;;;;;;1.80;1.20;;;13.30;90.30;;;;;;931733;152;27323;-78
2022/09/18 03:06:39;;;;;;;1.27;0.73;;;13.30;90.30;;;;;;932485;151;27295;-79
2022/09/18 03:09:05;;;;;;;3.43;1.20;;;13.20;90.40;;;;;;931555;152;27793;-78
2022/09/18 03:11:32;;;;;;;2.10;1.10;;;13.20;90.50;;;;;;932009;152;27894;-79
2022/09/18 03:13:59;;;;;;;1.47;1.20;;;13.20;90.60;;;;;;931743;152;27363;-79
2022/09/18 03:16:25;;;;;;;2.60;1.10;;;13.20;90.80;;;;;;932176;152;27323;-79
2022/09/18 03:18:52;;;;;;;3.23;1.07;;;13.20;90.90;;;;;;932112;152;27392;-80
2022/09/18 03:21:19;;;;;;;1.40;1.30;;;13.20;91.00;;;;;;931977;152;27378;-79
2022/09/18 03:23:45;;;;;;;2.30;1.00;;;13.20;91.10;;;;;;931871;152;27295;-79
2022/09/18 03:26:12;;;;;;;2.27;1.13;;;13.20;91.20;;;;;;931176;152;27421;-79
2022/09/18 03:28:38;;;;;;;2.27;0.87;;;13.20;91.30;;;;;;931947;152;27386;-78
2022/09/18 03:31:05;;;;;;;2.27;1.10;;;13.20;91.40;;;;;;931683;152;27290;-80
2022/09/18 03:33:31;;;;;;;4.80;1.90;;;13.20;91.50;;;;;;931789;151;28188;-79
2022/09/18 03:35:58;;;;;;;2.67;1.00;;;13.30;91.60;;;;;;931655;152;27467;-79
2022/09/18 03:38:25;;;;;;;2.33;1.07;;;13.20;91.60;;;;;;931456;152;27433;-79
2022/09/18 03:40:51;;;;;;;1.00;0.90;;;13.20;91.60;;;;;;931987;151;27360;-79
2022/09/18 03:43:18;;;;;;;1.73;0.97;;;13.30;91.70;;;;;;931697;151;27416;-79
2022/09/18 03:45:44;;;;;;;1.90;0.90;;;13.30;91.80;;;;;;931615;152;27328;-80
2022/09/18 03:48:11;;;;;;;2.27;0.90;;;13.30;91.90;;;;;;931583;151;27463;-78
2022/09/18 03:50:37;;;;;;;2.97;1.43;;;13.30;91.90;;;;;;931788;152;27327;-79
2022/09/18 03:53:04;;;;;;;1.23;0.97;;;13.30;91.90;;;;;;932122;151;27866;-79
2022/09/18 03:55:31;;;;;;;2.43;0.80;;;13.40;92.00;;;;;;932203;151;27409;-80
2022/09/18 03:57:57;;;;;;;2.53;0.90;;;13.40;91.90;;;;;;932100;152;27424;-79
2022/09/18 04:00:24;;;;;;;1.57;0.90;;;13.40;91.80;;;;;;931700;151;27323;-79
2022/09/18 04:02:50;;;;;;;1.93;0.70;;;13.40;91.90;;;;;;931590;151;27392;-79
2022/09/18 04:05:17;;;;;;;1.00;0.90;;;13.40;91.90;;;;;;931536;152;27283;-79
2022/09/18 04:07:44;;;;;;;2.43;0.90;;;13.40;91.90;;;;;;932157;151;27326;-79
2022/09/18 04:10:10;;;;;;;0.50;0.50;;;13.40;91.80;;;;;;931624;152;27436;-79
2022/09/18 04:12:37;;;;;;;3.37;1.83;;;13.40;91.90;;;;;;931871;152;27405;-79
2022/09/18 04:15:03;;;;;;;1.10;0.80;;;13.40;91.90;;;;;;931811;151;27320;-79
2022/09/18 04:17:30;;;;;;;1.30;0.80;;;13.40;91.80;;;;;;931560;152;27429;-79
2022/09/18 04:19:57;;;;;;;1.50;0.67;;;13.50;91.90;;;;;;930379;151;27414;-79
2022/09/18 04:22:23;;;;;;;2.27;0.77;;;13.50;91.90;;;;;;930363;152;27316;-79
2022/09/18 04:24:50;;;;;;;0.70;0.70;;;13.50;92.00;;;;;;930884;151;27444;-79
2022/09/18 04:27:16;;;;;;;2.00;1.10;;;13.50;92.00;;;;;;930720;151;27395;-79
2022/09/18 04:29:43;;;;;;;1.73;0.67;;;13.50;92.10;;;;;;930564;151;27312;-78
2022/09/18 04:32:10;;;;;;;1.97;1.00;;;13.50;92.00;;;;;;930451;152;27338;-79
2022/09/18 04:34:36;;;;;;;2.00;0.60;;;13.50;91.70;;;;;;930306;151;27410;-79
2022/09/18 04:37:03;;;;;;;0.97;0.63;;;13.50;92.00;;;;;;930972;152;27364;-80
2022/09/18 04:39:31;;;;;;;3.93;1.13;;;13.60;92.40;;;;;;930036;151;27842;-79
2022/09/18 04:41:56;;;;;;;0.60;0.60;;;13.60;92.00;;;;;;931270;150;27332;-79
2022/09/18 04:44:23;;;;;;;1.63;0.80;;;13.60;92.10;;;;;;931636;152;27482;-79
2022/09/18 04:46:49;;;;;;;1.30;0.80;;;13.60;92.20;;;;;;930170;150;27323;-79
2022/09/18 04:49:17;;;;;;;0.70;0.70;;;13.60;92.20;;;;;;931906;152;27455;-80
2022/09/18 04:51:42;;;;;;;1.53;1.00;;;13.60;92.20;;;;;;929563;152;27800;-79
2022/09/18 04:54:09;;;;;;;2.27;0.97;;;13.60;92.20;;;;;;930656;152;27367;-79
2022/09/18 04:56:35;;;;;;;0.70;0.67;;;13.60;92.10;;;;;;931091;152;27292;-79
2022/09/18 04:59:02;;;;;;;1.10;0.87;;;13.60;92.20;;;;;;929899;151;27342;-78
2022/09/18 05:01:29;;;;;;;0.87;0.60;;;13.60;92.20;;;;;;930257;151;27351;-79
2022/09/18 05:03:55;;;;;;;2.40;0.80;;;13.60;92.30;;;;;;930372;152;27374;-79
2022/09/18 05:06:23;;;;;;;1.53;0.90;;;13.60;92.30;;;;;;929059;152;27863;-78
2022/09/18 05:08:48;;;;;;;2.93;0.97;;;13.60;92.30;;;;;;931599;152;27350;-77
2022/09/18 05:11:15;;;;;;;1.00;0.67;;;13.60;92.30;;;;;;931129;152;27319;-76
2022/09/18 05:13:42;;;;;;;1.43;0.60;;;13.60;92.50;;;;;;929890;151;27387;-78
2022/09/18 05:16:08;;;;;;;0.73;0.70;;;13.60;92.40;;;;;;930209;152;27498;-79
2022/09/18 05:18:35;;;;;;;0.67;0.67;;;13.60;92.50;;;;;;931402;152;27492;-79
2022/09/18 05:21:04;;;;;;;1.10;0.70;;;13.60;92.40;;;;;;932056;152;27378;-79
2022/09/18 05:23:28;;;;;;;0.97;0.83;;;13.60;92.40;;;;;;931845;151;27327;-79
2022/09/18 05:25:54;;;;;;;0.80;0.80;;;13.60;92.30;;;;;;931567;151;27375;-79
2022/09/18 05:28:21;;;;;;;1.17;0.90;;;13.60;92.30;;;;;;932253;152;27384;-80
2022/09/18 05:30:48;;;;;;;1.50;1.20;;;13.60;92.40;;;;;;931954;152;27470;-79
2022/09/18 05:33:14;;;;;;;0.73;0.63;;;13.60;92.30;;;;;;931549;151;27740;-79
2022/09/18 05:35:41;;;;;;;0.30;0.30;;;13.70;92.40;;;;;;932064;152;27353;-79
2022/09/18 05:38:07;;;;;;;1.80;0.73;;;13.70;92.40;;;;;;931845;152;27392;-79
2022/09/18 05:40:34;;;;;;;0.83;0.67;;;13.70;92.50;;;;;;932421;151;27401;-80
2022/09/18 05:43:03;;;;;;;0.50;0.50;;;13.70;92.50;;;;;;932023;151;27361;-78
2022/09/18 05:45:27;;;;;;;1.03;0.60;;;13.70;92.40;;;;;;932047;151;27391;-78
2022/09/18 05:47:56;;;;;;;0.77;0.77;;;13.70;92.40;;;;;;932005;151;27430;-79
2022/09/18 05:50:23;;;;;;;1.53;0.63;;;13.70;92.40;;;;;;931569;151;27350;-79
2022/09/18 05:53:13;;;;;;;0.57;0.50;;;13.70;92.40;;;;;;931788;151;27346;-80
2022/09/18 05:55:40;;;;;;;2.77;1.00;;;13.80;92.40;;;;;;931681;152;27385;-78
2022/09/18 05:58:07;;;;;;;1.47;0.63;;;13.80;92.30;;;;;;931631;152;27387;-78
2022/09/18 06:00:33;;;;;;;1.43;0.93;;;13.80;92.40;;;;;;931263;152;27362;-78
2022/09/18 06:03:00;;;;;;;1.50;0.70;;;13.80;92.30;;;;;;931266;152;27342;-78
2022/09/18 06:05:26;;;;;;;2.53;0.80;;;13.80;92.00;;;;;;931094;151;27349;-79
2022/09/18 06:07:53;;;;;;;1.17;0.73;;;13.80;92.30;;;;;;931653;151;27405;-78
2022/09/18 06:10:20;;;;;;;1.10;0.63;;;13.80;92.40;;;;;;932153;152;27376;-79
2022/09/18 06:12:46;;;;;;;2.33;0.93;;;13.90;92.40;;;;;;931582;152;27320;-79
2022/09/18 06:15:13;;;;;;;0.60;0.60;;;13.90;92.40;;;;;;931741;152;27364;-79
2022/09/18 06:17:39;;;;;;;1.37;0.77;;;13.90;92.50;;;;;;932301;150;27665;-79
2022/09/18 06:20:07;;;;;;;1.27;0.50;;;13.90;92.40;;;;;;935667;151;27471;-79
2022/09/18 06:22:33;;;;;;;0.40;0.37;;;14.00;92.60;;;;;;934905;151;27423;-78
2022/09/18 06:24:59;;;;;;;1.20;0.50;;;14.00;92.60;;;;;;935714;150;27420;-79
2022/09/18 06:27:26;;;;;;;0.97;0.50;;;14.00;92.60;;;;;;934832;151;27343;-79
2022/09/18 06:29:53;;;;;;;1.13;0.53;;;14.10;92.50;;;;;;935091;151;27310;-79
2022/09/18 06:32:19;;;;;;;1.02;0.80;;;14.10;92.40;;;;;;935041;150;27388;-80
2022/09/18 06:34:45;;;;;;;1.52;0.80;;;14.10;92.50;;;;;;935495;151;27441;-79
2022/09/18 06:37:12;;;;;;;2.67;0.67;;;14.20;92.50;;;;;;935145;150;27337;-79
2022/09/18 06:39:39;;;;;;;0.70;0.70;;;14.20;92.50;;;;;;935266;151;27338;-79
2022/09/18 06:42:05;;;;;;;1.10;1.00;;;14.30;92.30;;;;;;935499;151;27432;-79
2022/09/18 06:44:32;;;;;;;2.20;1.70;;;14.30;92.30;;;;;;934760;151;27343;-79
2022/09/18 06:46:58;;;;;;;1.50;1.40;;;14.30;92.20;;;;;;934773;151;27426;-79
2022/09/18 06:49:25;;;;;;;1.70;1.13;;;14.40;92.20;;;;;;935229;151;27475;-79
2022/09/18 06:51:52;;;;;;;2.53;1.03;;;14.40;92.10;;;;;;934813;151;27397;-78
2022/09/18 06:54:18;;;;;;;0.90;0.90;;;14.50;92.00;;;;;;935519;150;27381;-79
2022/09/18 06:56:45;;;;;;;3.95;1.50;;;14.50;92.00;;;;;;935380;151;27278;-79
2022/09/18 06:59:11;;;;;;;1.42;1.10;;;14.60;91.80;;;;;;935521;151;27484;-80
2022/09/18 07:01:38;;;;;;;1.25;1.00;;;14.60;91.60;;;;;;934854;151;27474;-79
2022/09/18 07:04:04;;;;;;;5.57;1.77;;;14.60;91.40;;;;;;934946;151;27279;-79
2022/09/18 07:06:31;;;;;;;1.70;1.60;;;14.60;91.40;;;;;;935256;151;27359;-79
2022/09/18 07:08:58;;;;;;;5.60;3.25;;;14.60;91.30;;;;;;935371;151;27335;-79
2022/09/18 07:11:24;;;;;;;5.45;2.50;;;14.70;91.30;;;;;;935630;150;27362;-80
2022/09/18 07:13:52;;;;;;;3.97;2.00;;;14.70;91.30;;;;;;935629;150;27346;-79
2022/09/18 07:16:17;;;;;;;7.93;2.50;;;14.70;91.30;;;;;;934852;151;27382;-80
2022/09/18 07:18:45;;;;;;;3.03;1.67;;;14.80;91.30;;;;;;934412;150;27901;-79
2022/09/18 07:21:11;;;;;;;4.13;2.03;;;14.80;91.30;;;;;;930680;152;27311;-80
2022/09/18 07:23:37;;;;;;;6.40;2.83;;;14.80;91.40;;;;;;932166;151;27307;-80
2022/09/18 07:26:04;;;;;;;3.40;1.52;;;14.90;91.40;;;;;;929726;152;27485;-79
2022/09/18 07:28:30;;;;;;;2.07;0.70;;;14.90;91.40;;;;;;929746;152;27458;-79
2022/09/18 07:30:57;;;;;;;1.53;1.10;;;15.00;91.30;;;;;;930030;152;27440;-79
2022/09/18 07:33:24;;;;;;;1.82;0.88;;;15.00;91.30;;;;;;930092;152;27448;-79
2022/09/18 07:35:51;;;;;;;0.70;0.68;;;15.00;91.20;;;;;;931043;151;28199;-79
2022/09/18 07:38:17;;;;;;;1.60;0.88;;;15.10;91.10;;;;;;931304;151;27377;-80
2022/09/18 07:40:44;;;;;;;0.90;0.50;;;15.10;91.10;;;;;;930157;151;27479;-79
2022/09/18 07:43:10;;;;;;;0.45;0.45;;;15.20;90.90;;;;;;930014;152;27297;-79
2022/09/18 07:45:36;;;;;;;0.60;0.53;;;15.20;90.80;;;;;;929684;152;27289;-79
2022/09/18 07:48:04;;;;;;;0.50;0.50;;;15.30;90.70;;;;;;930304;152;27518;-79
2022/09/18 07:50:30;;;;;;;0.42;0.33;;;15.30;90.60;;;;;;930801;151;27959;-79
2022/09/18 07:52:56;;;;;;;2.27;0.80;;;15.30;90.70;;;;;;931377;151;27492;-79
2022/09/18 07:55:23;;;;;;;2.50;0.55;;;15.40;90.70;;;;;;930794;152;27459;-79
2022/09/18 07:57:56;;;;;;;0.55;0.50;;;15.40;90.80;;;;;;930910;151;27375;-80
2022/09/18 08:00:22;;;;;;;0.82;0.57;;;15.50;90.90;;;;;;929567;152;27504;-80
2022/09/18 08:02:49;;;;;;;0.37;0.37;;;15.60;91.10;;;;;;931345;152;27724;-80
2022/09/18 08:05:15;;;;;;;0.62;0.47;;;15.60;91.00;;;;;;931483;152;27741;-79
2022/09/18 08:07:43;;;;;;;1.20;0.65;;;15.70;90.90;;;;;;930477;152;27386;-79
2022/09/18 08:10:10;;;;;;;0.88;0.70;;;15.70;90.80;;;;;;930838;152;27306;-79
2022/09/18 08:12:35;;;;;;;1.27;1.17;;;15.80;90.80;;;;;;930470;152;27888;-80
2022/09/18 08:15:01;;;;;;;1.72;1.15;;;15.90;90.80;;;;;;931488;152;27408;-79
2022/09/18 08:17:28;;;;;;;2.17;0.90;;;15.90;90.70;;;;;;931200;151;27386;-79
2022/09/18 08:19:55;;;;;;;0.60;0.30;;;16.00;90.60;;;;;;932386;151;27394;-79
2022/09/18 08:22:21;;;;;;;0.50;0.50;;;16.10;90.50;;;;;;931768;151;27423;-79
2022/09/18 08:24:48;;;;;;;1.02;0.33;;;16.20;90.30;;;;;;931663;152;27311;-79
2022/09/18 08:27:14;;;;;;;0.80;0.60;;;16.20;90.00;;;;;;932022;152;27395;-80
2022/09/18 08:29:41;;;;;;;0.40;0.40;;;16.30;89.60;;;;;;931791;152;27430;-80
2022/09/18 08:32:08;;;;;;;0.50;0.40;;;16.30;89.20;;;;;;932127;152;27342;-79
2022/09/18 08:34:34;;;;;;;0.95;0.62;;;16.30;88.70;;;;;;931895;152;27747;-79
2022/09/18 08:37:01;;;;;;;0.33;0.33;;;16.40;88.50;;;;;;931620;152;27337;-79
2022/09/18 08:39:27;;;;;;;0.40;0.40;;;16.40;88.30;;;;;;931963;152;27448;-78
2022/09/18 08:42:10;;;;;;;1.80;0.60;;;16.40;87.50;;;;;;932199;152;27385;-79
2022/09/18 08:44:36;;;;;;;1.47;0.30;;;16.40;88.10;;;;;;930386;152;27347;-79
2022/09/18 08:47:11;;;;;;;0.40;0.20;;;16.50;88.40;;;;;;930634;152;27335;-78
2022/09/18 08:49:40;;;;;;;1.15;0.78;;;16.50;88.60;;;;;;931426;151;27323;-79
2022/09/18 08:52:16;;;;;;;3.30;1.32;;;16.60;88.60;;;;;;931079;152;27394;-79
2022/09/18 08:54:39;;;;;;;0.57;0.55;;;16.70;88.50;;;;;;930697;152;27389;-79
2022/09/18 08:57:27;;;;;;;0.80;0.37;;;16.80;88.30;;;;;;931988;152;27287;-79
2022/09/18 08:59:57;;;;;;;0.78;0.40;;;16.90;87.90;;;;;;931619;152;27385;-79
2022/09/18 09:02:38;;;;;;;0.30;0.30;;;17.00;87.70;;;;;;931330;152;27326;-79
2022/09/18 09:05:05;;;;;;;0.68;0.60;;;17.10;87.20;;;;;;930853;151;27303;-80
2022/09/18 09:07:32;;;;;;;3.45;2.45;;;17.20;86.80;;;;;;929593;152;27342;-79
2022/09/18 09:10:00;;;;;;;1.72;1.20;;;17.30;86.30;;;;;;931002;152;27454;-79
2022/09/18 09:12:55;;;;;;;1.80;1.70;;;17.40;86.10;;;;;;929669;152;27303;-79
2022/09/18 09:15:36;;;;;;;0.60;0.50;;;17.50;85.70;;;;;;929577;152;27275;-78
2022/09/18 09:18:27;;;;;;;0.30;0.30;;;17.60;85.10;;;;;;931645;152;27298;-79
2022/09/18 09:20:53;;;;;;;0.90;0.45;;;17.70;84.60;;;;;;906841;151;27496;-79
2022/09/18 09:23:33;;;;;;;0.13;0.13;;;17.80;85.00;;;;;;934937;151;27319;-78
2022/09/18 09:25:59;;;;;;;0.95;0.60;;;18.00;85.70;;;;;;933384;151;27293;-79
2022/09/18 09:28:34;;;;;;;0.62;0.50;;;18.20;85.00;;;;;;934296;151;27326;-79
2022/09/18 09:31:00;;;;;;;0.40;0.40;;;18.30;83.30;;;;;;935727;151;27450;-78
2022/09/18 09:33:33;;;;;;;0.50;0.50;;;18.40;81.80;;;;;;934945;151;27286;-79
2022/09/18 09:36:14;;;;;;;0.60;0.40;;;18.50;80.80;;;;;;934097;151;27833;-79
2022/09/18 09:38:50;;;;;;;0.35;0.35;;;18.60;80.30;;;;;;935260;151;27400;-78
2022/09/18 09:41:20;;;;;;;1.05;0.40;;;18.60;79.80;;;;;;934119;151;27436;-78
2022/09/18 09:43:58;;;;;;;0.75;0.50;;;18.60;79.30;;;;;;934807;151;27338;-78
2022/09/18 09:46:30;;;;;;;1.05;0.60;;;18.70;79.20;;;;;;927650;151;27403;-79
2022/09/18 09:48:56;;;;;;;0.30;0.30;;;18.70;78.70;;;;;;934123;150;27457;-79
2022/09/18 09:51:44;;;;;;;0.72;0.55;;;18.60;78.20;;;;;;934430;150;27372;-78
2022/09/18 09:54:11;;;;;;;0.85;0.40;;;18.70;77.70;;;;;;935148;151;27511;-79
2022/09/18 09:56:46;;;;;;;0.82;0.70;;;18.60;77.10;;;;;;934589;151;27337;-78
2022/09/18 09:59:13;;;;;;;1.00;0.68;;;18.50;77.10;;;;;;910702;156;27447;-78
2022/09/18 10:01:42;;;;;;;0.30;0.30;;;18.50;77.20;;;;;;933924;151;27401;-78
2022/09/18 10:04:23;;;;;;;0.88;0.50;;;18.50;77.20;;;;;;920857;151;27383;-79
2022/09/18 10:06:56;;;;;;;1.00;0.35;;;18.40;77.10;;;;;;935006;151;27326;-78
2022/09/18 10:09:47;;;;;;;2.83;2.62;;;18.40;77.10;;;;;;934717;151;27416;-79
2022/09/18 10:12:16;;;;;;;1.07;1.02;;;18.40;76.70;;;;;;935237;151;27314;-78
2022/09/18 10:14:43;;;;;;;1.30;1.20;;;18.40;76.60;;;;;;932211;150;27375;-78
2022/09/18 10:17:09;;;;;;;1.85;1.12;;;18.30;76.50;;;;;;934692;151;27412;-78
2022/09/18 10:19:36;;;;;;;1.62;0.95;;;18.30;76.60;;;;;;934941;151;27419;-78
2022/09/18 10:22:03;;;;;;;0.57;0.57;;;18.20;77.10;;;;;;930975;151;27401;-78
2022/09/18 10:24:35;;;;;;;0.60;0.60;;;18.20;76.00;;;;;;929595;151;27369;-78
2022/09/18 10:27:01;;;;;;;1.60;0.70;;;18.10;75.80;;;;;;929453;151;27391;-79
2022/09/18 10:29:28;;;;;;;0.60;0.60;;;18.10;75.90;;;;;;929129;151;27418;-78
2022/09/18 10:31:57;;;;;;;2.58;0.90;;;18.00;76.20;;;;;;930365;151;27393;-78
2022/09/18 10:34:30;;;;;;;0.60;0.60;;;18.00;76.40;;;;;;931034;150;27457;-78
2022/09/18 10:36:56;;;;;;;1.35;0.88;;;18.00;76.80;;;;;;931280;150;27382;-79
2022/09/18 10:39:32;;;;;;;1.37;1.22;;;18.00;77.10;;;;;;930516;150;27377;-78
2022/09/18 10:42:01;;;;;;;1.75;1.10;;;18.00;76.90;;;;;;928903;151;27549;-78
2022/09/18 10:44:28;;;;;;;1.80;1.05;;;18.00;76.80;;;;;;928743;152;27314;-78
2022/09/18 10:46:57;;;;;;;2.10;1.25;;;18.10;76.60;;;;;;929378;150;27406;-78
2022/09/18 10:49:24;;;;;;;1.20;1.07;;;18.20;76.50;;;;;;929495;150;27360;-78
2022/09/18 10:52:09;;;;;;;0.47;0.47;;;18.20;76.20;;;;;;930080;152;27271;-78
2022/09/18 10:54:35;;;;;;;0.80;0.60;;;18.30;75.90;;;;;;930542;151;27497;-78
2022/09/18 10:57:24;;;;;;;1.77;1.10;;;18.30;75.10;;;;;;929697;152;27914;-78
2022/09/18 10:59:50;;;;;;;2.70;1.10;;;18.40;74.60;;;;;;928518;151;27396;-78
2022/09/18 11:02:17;;;;;;;1.40;0.78;;;18.40;74.40;;;;;;930962;151;27289;-78
2022/09/18 11:04:43;;;;;;;3.02;1.07;;;18.30;74.40;;;;;;928441;152;27370;-79
2022/09/18 11:07:10;;;;;;;0.80;0.80;;;18.20;74.40;;;;;;930870;152;27472;-78
2022/09/18 11:09:37;;;;;;;1.32;0.98;;;18.10;74.60;;;;;;928881;151;27514;-78
2022/09/18 11:12:03;;;;;;;0.85;0.85;;;18.00;75.00;;;;;;929495;152;27100;-79
2022/09/18 11:14:29;;;;;;;2.95;1.30;;;17.90;75.60;;;;;;931090;152;27356;-78
2022/09/18 11:16:56;;;;;;;1.40;1.30;;;17.90;76.20;;;;;;929728;151;27436;-78
2022/09/18 11:19:31;;;;;;;2.05;1.30;;;17.90;76.50;;;;;;927939;151;27387;-78
2022/09/18 11:22:04;;;;;;;1.57;1.10;;;17.90;76.80;;;;;;934110;150;27363;-76
2022/09/18 11:24:32;;;;;;;3.83;2.02;;;17.90;76.70;;;;;;937782;150;27418;-77
2022/09/18 11:26:57;;;;;;;1.27;0.95;;;17.90;75.90;;;;;;936042;150;27358;-77
2022/09/18 11:29:32;;;;;;;1.82;0.70;;;18.00;76.70;;;;;;938169;150;27392;-79
2022/09/18 11:31:59;;;;;;;1.72;0.90;;;18.00;76.50;;;;;;936567;150;27347;-79
2022/09/18 11:34:25;;;;;;;1.25;0.70;;;18.10;76.50;;;;;;939121;150;27782;-79
2022/09/18 11:36:52;;;;;;;2.10;0.82;;;18.20;76.40;;;;;;934808;150;27281;-79
2022/09/18 11:39:27;;;;;;;0.78;0.65;;;18.20;76.20;;;;;;938302;150;27443;-79
2022/09/18 11:41:54;;;;;;;1.40;0.80;;;18.30;76.50;;;;;;938958;150;27445;-78
2022/09/18 11:44:24;;;;;;;1.22;0.90;;;18.40;74.20;;;;;;937974;150;27419;-78
2022/09/18 11:46:59;;;;;;;0.70;0.70;;;18.40;74.60;;;;;;937115;150;27494;-78
2022/09/18 11:49:25;;;;;;;1.25;0.65;;;18.50;74.20;;;;;;936491;150;27513;-78
2022/09/18 11:51:55;;;;;;;0.95;0.62;;;18.50;73.90;;;;;;938235;150;27466;-78
2022/09/18 11:54:27;;;;;;;0.70;0.70;;;18.50;73.60;;;;;;935401;150;27429;-78
2022/09/18 11:56:54;;;;;;;0.70;0.70;;;18.50;73.20;;;;;;936676;150;27408;-78
2022/09/18 11:59:26;;;;;;;2.20;0.55;;;18.50;72.80;;;;;;937414;150;27346;-79
2022/09/18 12:02:12;;;;;;;0.98;0.70;;;18.50;72.50;;;;;;937582;150;27352;-79
2022/09/18 12:04:41;;;;;;;0.45;0.37;;;18.50;72.30;;;;;;935083;150;27370;-78
2022/09/18 12:07:26;;;;;;;1.42;0.50;;;18.50;72.10;;;;;;937306;150;27477;-78
2022/09/18 12:10:14;;;;;;;0.65;0.50;;;18.40;71.20;;;;;;935865;150;27401;-78
2022/09/18 12:12:43;;;;;;;1.45;1.00;;;18.40;71.50;;;;;;934676;150;27384;-78
2022/09/18 12:15:10;;;;;;;0.82;0.40;;;18.30;71.20;;;;;;936080;150;27374;-78
2022/09/18 12:17:37;;;;;;;0.85;0.33;;;18.30;71.10;;;;;;931888;149;27476;-78
2022/09/18 12:20:06;;;;;;;0.90;0.30;;;18.20;70.80;;;;;;941540;149;27441;-78
2022/09/18 12:22:33;;;;;;;0.55;0.55;;;18.20;70.70;;;;;;938474;150;27416;-77
2022/09/18 12:24:59;;;;;;;0.55;0.50;;;18.10;70.70;;;;;;914365;153;27370;-78
2022/09/18 12:27:41;;;;;;;0.70;0.57;;;18.10;70.70;;;;;;936886;149;27291;-78
2022/09/18 12:30:08;;;;;;;1.25;0.68;;;18.00;70.50;;;;;;921795;152;27411;-78
2022/09/18 12:32:46;;;;;;;1.75;0.50;;;17.90;70.50;;;;;;924064;152;27374;-78
2022/09/18 12:35:40;;;;;;;1.50;0.82;;;17.90;70.70;;;;;;927733;152;27319;-78
2022/09/18 12:38:27;;;;;;;0.78;0.78;;;17.90;70.70;;;;;;927406;152;27456;-77
2022/09/18 12:41:00;;;;;;;1.32;0.90;;;17.90;71.20;;;;;;928048;152;27484;-79
2022/09/18 12:44:01;;;;;;;1.02;0.60;;;17.80;71.00;;;;;;929720;152;27413;-79
2022/09/18 12:46:42;;;;;;;0.57;0.57;;;17.90;70.90;;;;;;936225;150;27304;-79
2022/09/18 12:49:21;;;;;;;0.98;0.90;;;17.90;70.70;;;;;;912042;152;27326;-78
2022/09/18 12:51:56;;;;;;;2.15;0.80;;;17.90;70.60;;;;;;937295;149;27350;-79
2022/09/18 12:54:31;;;;;;;1.65;0.55;;;17.80;70.40;;;;;;937673;149;27486;-79
2022/09/18 12:57:19;;;;;;;2.05;0.70;;;17.90;70.40;;;;;;936937;149;27326;-79
2022/09/18 12:59:57;;;;;;;0.68;0.60;;;17.90;70.00;;;;;;930074;150;27425;-79